createdAt,value
2016-04-21T08:26:15.289Z,1016.69
2016-04-21T08:27:55.653Z,1016.66
2016-04-21T08:28:55.657Z,1016.62
2016-04-21T08:29:55.659Z,1016.6
2016-04-21T08:30:55.661Z,1016.61
2016-04-21T08:31:55.650Z,1016.57
2016-04-21T08:32:55.652Z,1016.61
2016-04-21T08:33:55.655Z,1016.55
2016-04-21T08:34:55.658Z,1016.57
2016-04-21T08:35:55.660Z,1016.54
2016-04-21T08:36:55.663Z,1016.61
2016-04-21T08:37:55.649Z,1016.59
2016-04-21T08:38:55.652Z,1016.56
2016-04-21T08:39:55.671Z,1016.58
2016-04-21T08:40:55.657Z,1016.6
2016-04-21T08:41:55.661Z,1016.61
2016-04-21T08:42:55.663Z,1016.62
2016-04-21T08:43:55.666Z,1016.59
2016-04-21T08:44:55.669Z,1016.6
2016-04-21T08:45:55.671Z,1016.6
2016-04-21T08:46:55.658Z,1016.62
2016-04-21T08:47:55.662Z,1016.62
2016-04-21T08:48:55.665Z,1016.58
2016-04-21T08:49:55.667Z,1016.61
2016-04-21T08:50:55.669Z,1016.63
2016-04-21T08:51:55.672Z,1016.63
2016-04-21T08:52:55.664Z,1016.58
2016-04-21T08:53:55.667Z,1016.6
2016-04-21T08:54:55.669Z,1016.62
2016-04-21T08:55:55.672Z,1016.61
2016-04-21T08:56:55.674Z,1016.57
2016-04-21T08:57:55.661Z,1016.58
2016-04-21T08:58:55.664Z,1016.57
2016-04-21T08:59:55.666Z,1016.56
2016-04-21T09:00:55.669Z,1016.56
2016-04-21T09:01:55.673Z,1016.56
2016-04-21T09:02:55.675Z,1016.57
2016-04-21T09:03:55.662Z,1016.52
2016-04-21T09:04:55.680Z,1016.49
2016-04-21T09:05:55.668Z,1016.49
2016-04-21T09:06:55.671Z,1016.43
2016-04-21T09:07:55.673Z,1016.46
2016-04-21T09:08:55.676Z,1016.49
2016-04-21T09:09:55.679Z,1016.48
2016-04-21T09:10:55.665Z,1016.48
2016-04-21T09:11:55.684Z,1016.43
2016-04-21T09:12:55.670Z,1016.47
2016-04-21T09:13:55.674Z,1016.47
2016-04-21T09:14:55.677Z,1016.45
2016-04-21T09:15:55.679Z,1016.5
2016-04-21T09:16:55.681Z,1016.49
2016-04-21T09:17:55.668Z,1016.47
2016-04-21T09:18:55.686Z,1016.46
2016-04-21T09:19:55.674Z,1016.48
2016-04-21T09:20:55.676Z,1016.49
2016-04-21T09:21:55.679Z,1016.42
2016-04-21T09:22:55.681Z,1016.43
2016-04-21T09:23:55.669Z,1016.37
2016-04-21T09:24:55.672Z,1016.44
2016-04-21T09:25:55.675Z,1016.41
2016-04-21T09:26:55.678Z,1016.37
2016-04-21T09:27:55.681Z,1016.35
2016-04-21T09:28:55.698Z,1016.32
2016-04-21T09:29:55.686Z,1016.39
2016-04-21T09:30:55.688Z,1016.37
2016-04-21T09:31:55.675Z,1016.34
2016-04-21T09:32:55.677Z,1016.31
2016-04-21T09:33:55.680Z,1016.27
2016-04-21T09:34:55.683Z,1016.22
2016-04-21T09:35:55.686Z,1016.24
2016-04-21T09:36:55.672Z,1016.23
2016-04-21T09:37:55.675Z,1016.2
2016-04-21T09:38:55.677Z,1016.2
2016-04-21T09:39:55.681Z,1016.16
2016-04-21T09:40:55.683Z,1016.08
2016-04-21T09:41:55.686Z,1016.14
2016-04-21T09:42:55.688Z,1016.08
2016-04-21T09:43:55.676Z,1016.04
2016-04-21T09:44:55.679Z,1016.08
2016-04-21T09:45:55.681Z,1016.01
2016-04-21T09:46:55.684Z,1016.03
2016-04-21T09:47:55.687Z,1016.06
2016-04-21T09:48:55.689Z,1016.04
2016-04-21T09:49:55.693Z,1016.04
2016-04-21T09:50:55.695Z,1016.05
2016-04-21T09:51:55.681Z,1016.08
2016-04-21T09:52:55.685Z,1016.05
2016-04-21T09:53:55.687Z,1016.03
2016-04-21T09:54:55.690Z,1016.03
2016-04-21T09:55:55.693Z,1015.97
2016-04-21T09:56:55.695Z,1015.99
2016-04-21T09:57:55.698Z,1015.97
2016-04-21T09:58:55.685Z,1015.94
2016-04-21T09:59:55.689Z,1015.94
2016-04-21T10:00:55.691Z,1015.92
2016-04-21T10:01:55.694Z,1015.94
2016-04-21T10:02:55.697Z,1015.91
2016-04-21T10:03:55.699Z,1015.87
2016-04-21T10:04:55.701Z,1015.84
2016-04-21T10:05:55.704Z,1015.79
2016-04-21T10:06:55.707Z,1015.79
2016-04-21T10:07:55.694Z,1015.69
2016-04-21T10:08:55.696Z,1015.78
2016-04-21T10:09:55.699Z,1015.75
2016-04-21T10:10:55.734Z,1015.83
2016-04-21T10:11:55.781Z,1015.71
2016-04-21T10:12:55.827Z,1015.71
2016-04-21T10:13:55.874Z,1015.69
2016-04-21T10:14:55.905Z,1015.67
2016-04-21T10:15:55.931Z,1015.68
2016-04-21T10:16:55.950Z,1015.7
2016-04-21T10:17:55.968Z,1015.67
2016-04-21T10:18:55.987Z,1015.67
2016-04-21T10:19:56.006Z,1015.71
2016-04-21T10:20:56.001Z,1015.72
2016-04-21T10:21:56.009Z,1015.74
2016-04-21T10:22:56.019Z,1015.65
2016-04-21T10:23:56.027Z,1015.65
2016-04-21T10:24:56.035Z,1015.55
2016-04-21T10:25:56.041Z,1015.63
2016-04-21T10:26:56.045Z,1015.62
2016-04-21T10:27:56.050Z,1015.6
2016-04-21T10:28:56.039Z,1015.62
2016-04-21T10:29:56.044Z,1015.58
2016-04-21T10:30:56.048Z,1015.66
2016-04-21T10:31:56.051Z,1015.64
2016-04-21T10:32:56.054Z,1015.68
2016-04-21T10:33:56.041Z,1015.63
2016-04-21T10:34:56.045Z,1015.64
2016-04-21T10:35:56.048Z,1015.64
2016-04-21T10:36:56.051Z,1015.66
2016-04-21T10:37:56.055Z,1015.66
2016-04-21T10:38:56.057Z,1015.65
2016-04-21T10:39:56.060Z,1015.58
2016-04-21T10:40:56.048Z,1015.57
2016-04-21T10:41:56.051Z,1015.57
2016-04-21T10:42:56.054Z,1015.59
2016-04-21T10:43:56.056Z,1015.62
2016-04-21T10:44:56.059Z,1015.56
2016-04-21T10:45:56.062Z,1015.63
2016-04-21T10:46:56.048Z,1015.64
2016-04-21T10:47:56.052Z,1015.61
2016-04-21T10:48:56.054Z,1015.61
2016-04-21T10:49:56.057Z,1015.64
2016-04-21T10:50:56.060Z,1015.68
2016-04-21T10:51:56.062Z,1015.56
2016-04-21T10:52:56.065Z,1015.59
2016-04-21T10:53:56.068Z,1015.57
2016-04-21T10:54:56.070Z,1015.55
2016-04-21T10:55:56.058Z,1015.56
2016-04-21T10:56:56.060Z,1015.51
2016-04-21T10:57:56.078Z,1015.51
2016-04-21T10:58:56.066Z,1015.42
2016-04-21T10:59:56.068Z,1015.36
2016-04-21T11:00:56.071Z,1015.37
2016-04-21T11:01:56.074Z,1015.35
2016-04-21T11:02:56.061Z,1015.3
2016-04-21T11:03:56.063Z,1015.27
2016-04-21T11:04:56.066Z,1015.28
2016-04-21T11:05:56.069Z,1015.24
2016-04-21T11:06:56.072Z,1015.16
2016-04-21T11:07:56.074Z,1015.17
2016-04-21T11:08:56.077Z,1015.07
2016-04-21T11:09:56.079Z,1015.07
2016-04-21T11:10:56.066Z,1015.12
2016-04-21T11:11:56.069Z,1015.07
2016-04-21T11:12:56.072Z,1014.96
2016-04-21T11:13:56.074Z,1015.03
2016-04-21T11:14:56.077Z,1015.01
2016-04-21T11:15:56.080Z,1015
2016-04-21T11:16:56.083Z,1015
2016-04-21T11:17:56.084Z,1015
2016-04-21T11:18:56.087Z,1014.94
2016-04-21T11:19:56.075Z,1014.91
2016-04-21T11:20:56.078Z,1014.91
2016-04-21T11:21:56.080Z,1014.97
2016-04-21T11:22:56.084Z,1014.88
2016-04-21T11:23:56.086Z,1014.91
2016-04-21T11:24:56.073Z,1014.93
2016-04-21T11:25:56.075Z,1014.93
2016-04-21T11:26:56.078Z,1014.92
2016-04-21T11:27:56.081Z,1014.88
2016-04-21T11:28:56.084Z,1014.88
2016-04-21T11:29:56.086Z,1014.87
2016-04-21T11:30:56.089Z,1014.89
2016-04-21T11:31:56.091Z,1014.82
2016-04-21T11:32:56.094Z,1014.87
2016-04-21T11:33:56.081Z,1014.9
2016-04-21T11:34:56.084Z,1014.93
2016-04-21T11:35:56.086Z,1014.85
2016-04-21T11:36:56.089Z,1014.91
2016-04-21T11:37:56.091Z,1014.86
2016-04-21T11:38:56.094Z,1014.88
2016-04-21T11:39:56.097Z,1014.84
2016-04-21T11:40:56.085Z,1014.85
2016-04-21T11:41:56.088Z,1014.86
2016-04-21T11:42:56.090Z,1014.87
2016-04-21T11:43:56.093Z,1014.83
2016-04-21T11:44:56.096Z,1014.82
2016-04-21T11:45:56.099Z,1014.79
2016-04-21T11:46:56.101Z,1014.82
2016-04-21T11:47:56.103Z,1014.78
2016-04-21T11:48:56.090Z,1014.78
2016-04-21T11:49:56.093Z,1014.74
2016-04-21T11:50:56.096Z,1014.76
2016-04-21T11:51:56.099Z,1014.75
2016-04-21T11:52:56.101Z,1014.68
2016-04-21T11:53:56.103Z,1014.71
2016-04-21T11:54:56.106Z,1014.69
2016-04-21T11:55:56.094Z,1014.62
2016-04-21T11:56:56.097Z,1014.64
2016-04-21T11:57:56.100Z,1014.6
2016-04-21T11:58:56.102Z,1014.6
2016-04-21T11:59:56.105Z,1014.57
2016-04-21T12:00:56.107Z,1014.6
2016-04-21T12:01:56.110Z,1014.59
2016-04-21T12:02:56.113Z,1014.48
2016-04-21T12:03:56.100Z,1014.52
2016-04-21T12:04:56.103Z,1014.47
2016-04-21T12:05:56.105Z,1014.5
2016-04-21T12:06:56.108Z,1014.5
2016-04-21T12:07:56.110Z,1014.5
2016-04-21T12:08:56.113Z,1014.45
2016-04-21T12:09:56.116Z,1014.47
2016-04-21T12:10:56.118Z,1014.49
2016-04-21T12:11:56.105Z,1014.44
2016-04-21T12:12:56.124Z,1014.43
2016-04-21T12:13:56.126Z,1014.43
2016-04-21T12:14:56.113Z,1014.36
2016-04-21T12:15:56.116Z,1014.34
2016-04-21T12:16:56.119Z,1014.3
2016-04-21T12:17:56.121Z,1014.31
2016-04-21T12:18:56.124Z,1014.33
2016-04-21T12:19:56.126Z,1014.33
2016-04-21T12:20:56.114Z,1014.32
2016-04-21T12:21:56.132Z,1014.3
2016-04-21T12:22:56.119Z,1014.23
2016-04-21T12:23:56.123Z,1014.27
2016-04-21T12:24:56.125Z,1014.17
2016-04-21T12:25:56.143Z,1014.19
2016-04-21T12:26:56.145Z,1014.15
2016-04-21T12:27:56.134Z,1014.09
2016-04-21T12:28:56.136Z,1014.07
2016-04-21T12:29:56.138Z,1014.11
2016-04-21T12:30:56.125Z,1014.11
2016-04-21T12:31:56.128Z,1014.1
2016-04-21T12:32:56.131Z,1014.04
2016-04-21T12:33:56.133Z,1014.01
2016-04-21T12:34:56.136Z,1014.03
2016-04-21T12:35:56.138Z,1014.02
2016-04-21T12:36:56.141Z,1014
2016-04-21T12:37:56.144Z,1013.99
2016-04-21T12:38:56.147Z,1013.97
2016-04-21T12:39:56.149Z,1014
2016-04-21T12:40:56.152Z,1013.95
2016-04-21T12:41:56.155Z,1014.02
2016-04-21T12:42:56.142Z,1014
2016-04-21T12:43:56.144Z,1013.89
2016-04-21T12:44:56.147Z,1013.97
2016-04-21T12:45:56.149Z,1014.01
2016-04-21T12:46:56.152Z,1013.99
2016-04-21T12:47:56.155Z,1013.97
2016-04-21T12:48:56.157Z,1013.94
2016-04-21T12:49:56.161Z,1013.92
2016-04-21T12:50:56.163Z,1013.96
2016-04-21T12:51:56.166Z,1013.89
2016-04-21T12:52:56.169Z,1013.82
2016-04-21T12:53:56.156Z,1013.82
2016-04-21T12:54:56.174Z,1013.84
2016-04-21T12:55:56.161Z,1013.86
2016-04-21T12:56:56.164Z,1013.79
2016-04-21T12:57:56.167Z,1013.91
2016-04-21T12:58:56.170Z,1013.77
2016-04-21T12:59:56.173Z,1013.76
2016-04-21T13:00:56.175Z,1013.71
2016-04-21T13:01:56.162Z,1013.76
2016-04-21T13:02:56.165Z,1013.65
2016-04-21T13:03:56.167Z,1013.68
2016-04-21T13:04:56.169Z,1013.66
2016-04-21T13:05:56.172Z,1013.65
2016-04-21T13:06:56.175Z,1013.69
2016-04-21T13:07:56.178Z,1013.65
2016-04-21T13:08:56.180Z,1013.73
2016-04-21T13:09:56.183Z,1013.75
2016-04-21T13:10:56.186Z,1013.63
2016-04-21T13:11:56.174Z,1013.61
2016-04-21T13:12:56.176Z,1013.63
2016-04-21T13:13:56.178Z,1013.6
2016-04-21T13:14:56.182Z,1013.61
2016-04-21T13:15:56.184Z,1013.62
2016-04-21T13:16:56.187Z,1013.56
2016-04-21T13:17:56.190Z,1013.6
2016-04-21T13:18:56.192Z,1013.51
2016-04-21T13:19:56.195Z,1013.48
2016-04-21T13:20:56.198Z,1013.47
2016-04-21T13:21:56.185Z,1013.48
2016-04-21T13:22:56.188Z,1013.45
2016-04-21T13:23:56.190Z,1013.39
2016-04-21T13:24:56.192Z,1013.37
2016-04-21T13:25:56.195Z,1013.43
2016-04-21T13:26:56.197Z,1013.38
2016-04-21T13:27:56.201Z,1013.35
2016-04-21T13:28:56.203Z,1013.33
2016-04-21T13:29:56.206Z,1013.37
2016-04-21T13:30:56.193Z,1013.29
2016-04-21T13:31:56.196Z,1013.33
2016-04-21T13:32:56.198Z,1013.27
2016-04-21T13:33:56.201Z,1013.25
2016-04-21T13:34:56.204Z,1013.34
2016-04-21T13:35:56.206Z,1013.27
2016-04-21T13:36:56.209Z,1013.29
2016-04-21T13:37:56.211Z,1013.26
2016-04-21T13:38:56.214Z,1013.27
2016-04-21T13:39:56.420Z,1013.23
2016-04-21T13:40:56.377Z,1013.22
2016-04-21T13:41:56.208Z,1013.24
2016-04-21T13:42:56.210Z,1013.26
2016-04-21T13:43:56.212Z,1013.23
2016-04-21T13:44:56.217Z,1013.24
2016-04-21T13:45:56.220Z,1013.23
2016-04-21T13:46:56.223Z,1013.19
2016-04-21T13:47:56.226Z,1013.18
2016-04-21T13:48:56.229Z,1013.19
2016-04-21T13:49:56.231Z,1013.17
2016-04-21T13:50:56.217Z,1013.15
2016-04-21T13:51:56.220Z,1013.16
2016-04-21T13:52:56.239Z,1013.15
2016-04-21T13:53:56.225Z,1013.12
2016-04-21T13:54:56.228Z,1013.11
2016-04-21T13:55:56.231Z,1013.11
2016-04-21T13:56:56.234Z,1013.07
2016-04-21T13:57:56.236Z,1013.06
2016-04-21T13:58:56.239Z,1013.08
2016-04-21T13:59:56.241Z,1013.04
2016-04-21T14:00:56.245Z,1013.04
2016-04-21T14:01:56.247Z,1012.95
2016-04-21T14:02:56.281Z,1012.95
2016-04-21T14:03:56.244Z,1012.97
2016-04-21T14:04:56.246Z,1012.88
2016-04-21T14:05:56.248Z,1012.91
2016-04-21T14:06:56.251Z,1012.91
2016-04-21T14:07:56.254Z,1012.91
2016-04-21T14:08:56.242Z,1012.9
2016-04-21T14:09:56.245Z,1012.9
2016-04-21T14:10:56.247Z,1012.85
2016-04-21T14:11:56.250Z,1012.9
2016-04-21T14:12:56.252Z,1012.83
2016-04-21T14:13:56.256Z,1012.86
2016-04-21T14:14:56.258Z,1012.85
2016-04-21T14:15:56.260Z,1012.84
2016-04-21T14:16:56.263Z,1012.84
2016-04-21T14:17:56.250Z,1012.81
2016-04-21T14:18:56.269Z,1012.84
2016-04-21T14:19:56.255Z,1012.84
2016-04-21T14:20:56.259Z,1012.8
2016-04-21T14:21:56.277Z,1012.84
2016-04-21T14:22:56.257Z,1012.84
2016-04-21T14:23:56.260Z,1012.84
2016-04-21T14:24:56.263Z,1012.82
2016-04-21T14:25:56.265Z,1012.89
2016-04-21T14:26:56.269Z,1012.81
2016-04-21T14:27:56.271Z,1012.8
2016-04-21T14:28:56.274Z,1012.82
2016-04-21T14:29:56.262Z,1012.76
2016-04-21T14:30:56.264Z,1012.74
2016-04-21T14:31:56.267Z,1012.75
2016-04-21T14:32:56.285Z,1012.75
2016-04-21T14:33:56.272Z,1012.74
2016-04-21T14:34:56.275Z,1012.78
2016-04-21T14:35:56.277Z,1012.7
2016-04-21T14:36:56.264Z,1012.75
2016-04-21T14:37:56.267Z,1012.7
2016-04-21T14:38:56.270Z,1012.71
2016-04-21T14:39:56.272Z,1012.68
2016-04-21T14:40:56.274Z,1012.69
2016-04-21T14:41:56.278Z,1012.65
2016-04-21T14:42:56.280Z,1012.69
2016-04-21T14:43:56.267Z,1012.7
2016-04-21T14:44:56.270Z,1012.68
2016-04-21T14:45:56.272Z,1012.66
2016-04-21T14:46:56.275Z,1012.68
2016-04-21T14:47:56.278Z,1012.69
2016-04-21T14:48:56.266Z,1012.65
2016-04-21T14:49:56.268Z,1012.64
2016-04-21T14:50:56.271Z,1012.65
2016-04-21T14:51:56.274Z,1012.62
2016-04-21T14:52:56.260Z,1012.61
2016-04-21T14:53:56.262Z,1012.57
2016-04-21T14:54:56.265Z,1012.6
2016-04-21T14:55:56.252Z,1012.6
2016-04-21T14:56:56.255Z,1012.59
2016-04-21T14:57:56.258Z,1012.54
2016-04-21T14:58:56.246Z,1012.56
2016-04-21T14:59:56.248Z,1012.57
2016-04-21T15:00:56.250Z,1012.51
2016-04-21T15:01:56.238Z,1012.55
2016-04-21T15:02:56.240Z,1012.56
2016-04-21T15:03:56.243Z,1012.51
2016-04-21T15:04:56.246Z,1012.51
2016-04-21T15:05:56.233Z,1012.51
2016-04-21T15:06:56.236Z,1012.48
2016-04-21T15:07:56.238Z,1012.47
2016-04-21T15:08:56.225Z,1012.46
2016-04-21T15:09:56.228Z,1012.4
2016-04-21T15:10:56.231Z,1012.37
2016-04-21T15:11:56.217Z,1012.33
2016-04-21T15:12:56.220Z,1012.32
2016-04-21T15:13:56.208Z,1012.32
2016-04-21T15:14:56.210Z,1012.33
2016-04-21T15:15:56.213Z,1012.31
2016-04-21T15:16:56.199Z,1012.3
2016-04-21T15:17:56.202Z,1012.28
2016-04-21T15:18:56.205Z,1012.28
2016-04-21T15:19:56.192Z,1012.31
2016-04-21T15:20:56.194Z,1012.28
2016-04-21T15:21:56.197Z,1012.25
2016-04-21T15:22:56.185Z,1012.23
2016-04-21T15:23:56.187Z,1012.23
2016-04-21T15:24:56.190Z,1012.2
2016-04-21T15:25:56.193Z,1012.18
2016-04-21T15:26:56.180Z,1012.21
2016-04-21T15:27:56.182Z,1012.2
2016-04-21T15:28:56.170Z,1012.17
2016-04-21T15:29:56.173Z,1012.17
2016-04-21T15:30:56.160Z,1012.17
2016-04-21T15:31:56.162Z,1012.13
2016-04-21T15:32:56.164Z,1012.11
2016-04-21T15:33:56.152Z,1012.13
2016-04-21T15:34:56.154Z,1012.15
2016-04-21T15:35:56.142Z,1012.12
2016-04-21T15:36:56.145Z,1012.09
2016-04-21T15:37:56.147Z,1012.11
2016-04-21T15:38:56.134Z,1012.04
2016-04-21T15:39:56.137Z,1012.06
2016-04-21T15:40:56.124Z,1012.03
2016-04-21T15:41:56.126Z,1011.98
2016-04-21T15:42:56.114Z,1012
2016-04-21T15:43:56.116Z,1011.98
2016-04-21T15:44:56.119Z,1011.97
2016-04-21T15:45:56.106Z,1011.99
2016-04-21T15:46:56.108Z,1011.94
2016-04-21T15:47:56.096Z,1011.91
2016-04-21T15:48:56.099Z,1011.91
2016-04-21T15:49:56.085Z,1011.84
2016-04-21T15:50:56.088Z,1011.85
2016-04-21T15:51:56.075Z,1011.85
2016-04-21T15:52:56.078Z,1011.84
2016-04-21T15:53:56.065Z,1011.87
2016-04-21T15:54:56.068Z,1011.86
2016-04-21T15:55:56.055Z,1011.86
2016-04-21T15:56:56.058Z,1011.84
2016-04-21T15:57:56.060Z,1011.83
2016-04-21T15:58:56.047Z,1011.85
2016-04-21T15:59:56.050Z,1011.85
2016-04-21T16:00:56.037Z,1011.78
2016-04-21T16:01:56.024Z,1011.78
2016-04-21T16:02:56.026Z,1011.71
2016-04-21T16:03:56.030Z,1011.67
2016-04-21T16:04:56.017Z,1011.65
2016-04-21T16:05:56.020Z,1011.64
2016-04-21T16:06:56.006Z,1011.69
2016-04-21T16:07:56.009Z,1011.72
2016-04-21T16:08:55.995Z,1011.69
2016-04-21T16:09:55.983Z,1011.7
2016-04-21T16:10:56.001Z,1011.68
2016-04-21T16:11:55.972Z,1011.76
2016-04-21T16:12:55.976Z,1011.72
2016-04-21T16:13:55.962Z,1011.71
2016-04-21T16:14:55.965Z,1011.69
2016-04-21T16:15:55.952Z,1011.71
2016-04-21T16:16:55.955Z,1011.73
2016-04-21T16:17:55.942Z,1011.71
2016-04-21T16:18:55.945Z,1011.71
2016-04-21T16:19:55.933Z,1011.69
2016-04-21T16:20:55.935Z,1011.76
2016-04-21T16:21:55.921Z,1011.72
2016-04-21T16:22:55.924Z,1011.74
2016-04-21T16:23:55.911Z,1011.75
2016-04-21T16:24:55.913Z,1011.74
2016-04-21T16:25:55.901Z,1011.74
2016-04-21T16:26:55.904Z,1011.72
2016-04-21T16:27:55.891Z,1011.7
2016-04-21T16:28:55.893Z,1011.67
2016-04-21T16:29:55.880Z,1011.65
2016-04-21T16:30:55.883Z,1011.65
2016-04-21T16:31:55.871Z,1011.59
2016-04-21T16:32:55.873Z,1011.57
2016-04-21T16:33:55.860Z,1011.54
2016-04-21T16:34:55.848Z,1011.48
2016-04-21T16:35:55.866Z,1011.45
2016-04-21T16:36:55.837Z,1011.49
2016-04-21T16:37:55.840Z,1011.44
2016-04-21T16:38:55.826Z,1011.45
2016-04-21T16:39:55.829Z,1011.46
2016-04-21T16:40:55.816Z,1011.45
2016-04-21T16:41:55.820Z,1011.44
2016-04-21T16:42:55.806Z,1011.44
2016-04-21T16:43:55.809Z,1011.44
2016-04-21T16:44:55.795Z,1011.5
2016-04-21T16:45:55.798Z,1011.52
2016-04-21T16:46:55.801Z,1011.58
2016-04-21T16:47:55.789Z,1011.58
2016-04-21T16:48:55.775Z,1011.6
2016-04-21T16:49:55.778Z,1011.62
2016-04-21T16:50:55.766Z,1011.65
2016-04-21T16:51:55.753Z,1011.59
2016-04-21T16:52:55.755Z,1011.66
2016-04-21T16:53:55.742Z,1011.59
2016-04-21T16:54:55.776Z,1011.58
2016-04-21T16:55:55.732Z,1011.59
2016-04-21T16:56:55.735Z,1011.6
2016-04-21T16:57:55.721Z,1011.61
2016-04-21T16:58:55.724Z,1011.59
2016-04-21T16:59:55.711Z,1011.61
2016-04-21T17:00:55.714Z,1011.63
2016-04-21T17:01:55.701Z,1011.62
2016-04-21T17:02:55.701Z,1011.59
2016-04-21T17:03:55.688Z,1011.57
2016-04-21T17:04:55.676Z,1011.53
2016-04-21T17:05:55.678Z,1011.47
2016-04-21T17:06:55.665Z,1011.5
2016-04-21T17:07:55.668Z,1011.48
2016-04-21T17:08:55.655Z,1011.43
2016-04-21T17:09:55.657Z,1011.44
2016-04-21T17:10:55.645Z,1011.4
2016-04-21T17:11:55.648Z,1011.43
2016-04-21T17:12:55.634Z,1011.4
2016-04-21T17:13:55.636Z,1011.33
2016-04-21T17:14:55.623Z,1011.31
2016-04-21T17:15:55.626Z,1011.3
2016-04-21T17:16:55.614Z,1011.24
2016-04-21T17:17:55.616Z,1011.29
2016-04-21T17:18:55.603Z,1011.29
2016-04-21T17:19:55.778Z,1011.24
2016-04-21T17:20:55.594Z,1011.23
2016-04-21T17:21:55.580Z,1011.22
2016-04-21T17:22:55.583Z,1011.17
2016-04-21T17:23:55.570Z,1011.15
2016-04-21T17:24:55.573Z,1011.14
2016-04-21T17:25:55.622Z,1011.12
2016-04-21T17:26:55.547Z,1011.11
2016-04-21T17:27:55.550Z,1011.16
2016-04-21T17:28:55.536Z,1011.08
2016-04-21T17:29:55.539Z,1011.08
2016-04-21T17:30:55.541Z,1011.09
2016-04-21T17:31:55.529Z,1011.05
2016-04-21T17:32:55.516Z,1011.04
2016-04-21T17:33:55.504Z,1010.99
2016-04-21T17:34:55.506Z,1010.98
2016-04-21T17:35:55.493Z,1011
2016-04-21T17:36:55.496Z,1011
2016-04-21T17:37:55.482Z,1010.97
2016-04-21T17:38:55.470Z,1010.96
2016-04-21T17:39:55.473Z,1010.95
2016-04-21T17:40:55.460Z,1010.97
2016-04-21T17:41:55.462Z,1010.94
2016-04-21T17:42:55.449Z,1010.99
2016-04-21T17:43:55.437Z,1010.92
2016-04-21T17:44:55.439Z,1010.93
2016-04-21T17:45:55.426Z,1010.91
2016-04-21T17:46:55.413Z,1010.95
2016-04-21T17:47:55.417Z,1010.87
2016-04-21T17:48:55.403Z,1010.92
2016-04-21T17:49:55.390Z,1010.9
2016-04-21T17:50:55.392Z,1010.9
2016-04-21T17:51:55.380Z,1010.91
2016-04-21T17:52:55.383Z,1010.92
2016-04-21T17:53:55.369Z,1010.91
2016-04-21T17:54:55.356Z,1010.97
2016-04-21T17:55:55.359Z,1010.98
2016-04-21T17:56:55.346Z,1010.96
2016-04-21T17:57:55.333Z,1010.99
2016-04-21T17:58:55.336Z,1011.02
2016-04-21T17:59:55.323Z,1011.02
2016-04-21T18:00:55.311Z,1011.05
2016-04-21T18:01:55.313Z,1011.03
2016-04-21T18:02:55.299Z,1011.08
2016-04-21T18:03:55.288Z,1011.04
2016-04-21T18:04:55.292Z,1011.07
2016-04-21T18:05:55.279Z,1011.1
2016-04-21T18:06:55.266Z,1011.15
2016-04-21T18:07:55.253Z,1011.16
2016-04-21T18:08:55.256Z,1011.19
2016-04-21T18:09:55.243Z,1011.2
2016-04-21T18:10:55.261Z,1011.21
2016-04-21T18:11:55.232Z,1011.2
2016-04-21T18:12:55.220Z,1011.19
2016-04-21T18:13:55.223Z,1011.19
2016-04-21T18:14:55.209Z,1011.17
2016-04-21T18:15:55.211Z,1011.2
2016-04-21T18:16:55.184Z,1011.22
2016-04-21T18:17:55.190Z,1011.26
2016-04-21T18:18:55.177Z,1011.27
2016-04-21T18:19:55.164Z,1011.32
2016-04-21T18:20:55.151Z,1011.31
2016-04-21T18:21:55.155Z,1011.34
2016-04-21T18:22:55.141Z,1011.35
2016-04-21T18:23:55.145Z,1011.37
2016-04-21T18:24:55.116Z,1011.43
2016-04-21T18:25:55.165Z,1011.4
2016-04-21T18:26:55.105Z,1011.4
2016-04-21T18:27:55.093Z,1011.4
2016-04-21T18:28:55.095Z,1011.37
2016-04-21T18:29:55.082Z,1011.4
2016-04-21T18:30:55.085Z,1011.36
2016-04-21T18:31:55.073Z,1011.35
2016-04-21T18:32:55.059Z,1011.31
2016-04-21T18:33:55.046Z,1011.33
2016-04-21T18:34:55.034Z,1011.32
2016-04-21T18:35:55.036Z,1011.33
2016-04-21T18:36:55.773Z,1011.35
2016-04-21T18:37:55.010Z,1011.35
2016-04-21T18:38:54.998Z,1011.4
2016-04-21T18:39:55.000Z,1011.4
2016-04-21T18:40:55.050Z,1011.44
2016-04-21T18:41:55.053Z,1011.45
2016-04-21T18:42:54.961Z,1011.5
2016-04-21T18:43:54.964Z,1011.53
2016-04-21T18:44:54.951Z,1011.51
2016-04-21T18:45:54.939Z,1011.53
2016-04-21T18:46:55.347Z,1011.48
2016-04-21T18:47:54.928Z,1011.55
2016-04-21T18:48:54.915Z,1011.46
2016-04-21T18:49:54.902Z,1011.53
2016-04-21T18:50:54.889Z,1011.55
2016-04-21T18:51:54.877Z,1011.59
2016-04-21T18:52:54.880Z,1011.68
2016-04-21T18:53:54.866Z,1011.67
2016-04-21T18:54:54.852Z,1011.68
2016-04-21T18:55:54.856Z,1011.7
2016-04-21T18:56:54.844Z,1011.64
2016-04-21T18:57:54.829Z,1011.65
2016-04-21T18:58:54.816Z,1011.63
2016-04-21T18:59:54.804Z,1011.65
2016-04-21T19:00:54.807Z,1011.62
2016-04-21T19:01:54.794Z,1011.59
2016-04-21T19:02:54.781Z,1011.58
2016-04-21T19:03:54.773Z,1011.57
2016-04-21T19:04:54.760Z,1011.58
2016-04-21T19:05:54.747Z,1011.64
2016-04-21T19:06:54.750Z,1011.65
2016-04-21T19:07:54.736Z,1011.68
2016-04-21T19:08:54.723Z,1011.71
2016-04-21T19:09:54.711Z,1011.74
2016-04-21T19:10:54.698Z,1011.76
2016-04-21T19:11:54.700Z,1011.74
2016-04-21T19:12:54.687Z,1011.77
2016-04-21T19:13:54.675Z,1011.79
2016-04-21T19:14:54.662Z,1011.79
2016-04-21T19:15:54.649Z,1011.76
2016-04-21T19:16:54.658Z,1011.8
2016-04-21T19:17:54.684Z,1011.84
2016-04-21T19:18:54.710Z,1011.8
2016-04-21T19:19:54.736Z,1011.82
2016-04-21T19:20:54.762Z,1011.82
2016-04-21T19:21:54.801Z,1011.83
2016-04-21T19:22:54.792Z,1011.84
2016-04-21T19:23:54.792Z,1011.81
2016-04-21T19:24:54.793Z,1011.86
2016-04-21T19:25:54.795Z,1011.88
2016-04-21T19:26:54.811Z,1011.88
2016-04-21T19:27:54.802Z,1011.88
2016-04-21T19:28:54.795Z,1011.88
2016-04-21T19:29:54.787Z,1011.9
2016-04-21T19:30:54.794Z,1011.9
2016-04-21T19:31:54.786Z,1011.91
2016-04-21T19:32:54.775Z,1011.89
2016-04-21T19:33:54.764Z,1011.93
2016-04-21T19:34:54.752Z,1011.89
2016-04-21T19:35:54.742Z,1011.93
2016-04-21T19:36:54.747Z,1011.92
2016-04-21T19:37:54.733Z,1011.93
2016-04-21T19:38:54.736Z,1011.94
2016-04-21T19:39:54.709Z,1011.96
2016-04-21T19:40:54.696Z,1011.99
2016-04-21T19:41:54.683Z,1011.99
2016-04-21T19:42:54.687Z,1011.98
2016-04-21T19:43:54.674Z,1011.98
2016-04-21T19:44:54.661Z,1011.99
2016-04-21T19:45:54.649Z,1011.99
2016-04-21T19:46:54.636Z,1011.99
2016-04-21T19:47:54.639Z,1012
2016-04-21T19:48:54.626Z,1011.95
2016-04-21T19:49:54.613Z,1011.95
2016-04-21T19:50:54.600Z,1011.95
2016-04-21T19:51:54.588Z,1011.97
2016-04-21T19:52:54.574Z,1011.93
2016-04-21T19:53:54.561Z,1011.91
2016-04-21T19:54:54.564Z,1011.94
2016-04-21T19:55:54.551Z,1011.91
2016-04-21T19:56:54.537Z,1011.96
2016-04-21T19:57:54.525Z,1011.95
2016-04-21T19:58:54.513Z,1011.93
2016-04-21T19:59:54.499Z,1011.94
2016-04-21T20:00:54.501Z,1011.99
2016-04-21T20:01:54.489Z,1012.02
2016-04-21T20:02:54.476Z,1012.01
2016-04-21T20:03:54.463Z,1012.03
2016-04-21T20:04:54.451Z,1012.05
2016-04-21T20:05:54.437Z,1012.03
2016-04-21T20:06:54.424Z,1012.05
2016-04-21T20:07:54.428Z,1012.01
2016-04-21T20:08:54.414Z,1012.03
2016-04-21T20:09:54.401Z,1012.01
2016-04-21T20:10:54.389Z,1011.98
2016-04-21T20:11:54.376Z,1012
2016-04-21T20:12:54.361Z,1011.98
2016-04-21T20:13:54.350Z,1011.96
2016-04-21T20:14:54.336Z,1011.97
2016-04-21T20:15:54.339Z,1012
2016-04-21T20:16:54.327Z,1011.98
2016-04-21T20:17:54.313Z,1011.99
2016-04-21T20:18:54.300Z,1012
2016-04-21T20:19:54.288Z,1012.01
2016-04-21T20:20:54.274Z,1012.04
2016-04-21T20:21:54.262Z,1012.02
2016-04-21T20:22:54.264Z,1011.99
2016-04-21T20:23:54.252Z,1012.02
2016-04-21T20:24:54.239Z,1012.04
2016-04-21T20:25:54.226Z,1012.02
2016-04-21T20:26:54.213Z,1012.02
2016-04-21T20:27:54.199Z,1012.02
2016-04-21T20:28:54.187Z,1012.09
2016-04-21T20:29:54.174Z,1012.08
2016-04-21T20:30:54.176Z,1012.12
2016-04-21T20:31:54.163Z,1012.1
2016-04-21T20:32:54.151Z,1012.11
2016-04-21T20:33:54.138Z,1012.07
2016-04-21T20:34:54.125Z,1012.07